createdAt,value
2022-08-27T00:00:16.033Z,7.45
2022-08-27T00:00:38.033Z,7.63
2022-08-27T00:00:59.943Z,7.47
2022-08-27T00:01:22.682Z,7.43
2022-08-27T00:01:44.965Z,7.90
2022-08-27T00:02:08.486Z,7.65
2022-08-27T00:02:30.762Z,8.07
2022-08-27T00:02:52.783Z,8.02
2022-08-27T00:03:17.049Z,7.82
2022-08-27T00:03:39.028Z,7.75
2022-08-27T00:04:01.046Z,7.43
2022-08-27T00:04:23.312Z,7.93
2022-08-27T00:04:46.029Z,7.80
2022-08-27T00:05:10.414Z,7.97
2022-08-27T00:05:32.291Z,7.93
2022-08-27T00:05:54.224Z,7.82
2022-08-27T00:06:18.379Z,8.18
2022-08-27T00:06:40.989Z,7.95
2022-08-27T00:07:05.137Z,8.10
2022-08-27T00:07:26.945Z,8.00
2022-08-27T00:07:49.549Z,8.10
2022-08-27T00:08:13.907Z,7.55
2022-08-27T00:08:36.012Z,8.13
2022-08-27T00:08:58.457Z,8.20
2022-08-27T00:09:26.515Z,7.43
2022-08-27T00:09:49.060Z,7.85
2022-08-27T00:10:23.449Z,7.72
2022-08-27T00:10:48.185Z,7.65
2022-08-27T00:11:11.529Z,7.40
2022-08-27T00:11:33.555Z,7.80
2022-08-27T00:11:57.744Z,7.70
2022-08-27T00:12:19.660Z,7.97
2022-08-27T00:12:41.694Z,7.53
2022-08-27T00:13:04.199Z,7.77
2022-08-27T00:13:26.270Z,7.93
2022-08-27T00:13:48.917Z,7.72
2022-08-27T00:14:11.371Z,7.57
2022-08-27T00:14:33.660Z,7.80
2022-08-27T00:14:55.540Z,8.52
2022-08-27T00:15:18.305Z,7.97
2022-08-27T00:15:40.305Z,7.80
2022-08-27T00:16:03.445Z,7.95
2022-08-27T00:16:26.533Z,7.72
2022-08-27T00:16:50.616Z,7.85
2022-08-27T00:17:12.733Z,8.18
2022-08-27T00:17:35.657Z,7.60
2022-08-27T00:17:58.396Z,7.82
2022-08-27T00:18:22.815Z,7.97
2022-08-27T00:18:48.273Z,7.78
2022-08-27T00:19:10.315Z,7.82
2022-08-27T00:19:32.221Z,7.85
2022-08-27T00:19:54.069Z,7.60
2022-08-27T00:20:18.103Z,7.60
2022-08-27T00:20:39.861Z,8.20
2022-08-27T00:21:03.066Z,8.10
2022-08-27T00:21:24.964Z,8.00
2022-08-27T00:21:46.916Z,7.95
2022-08-27T00:22:09.760Z,7.97
2022-08-27T00:22:31.805Z,7.88
2022-08-27T00:22:54.733Z,7.47
2022-08-27T00:23:17.067Z,7.72
2022-08-27T00:23:41.005Z,8.55
2022-08-27T00:24:03.069Z,7.85
2022-08-27T00:24:24.941Z,7.38
2022-08-27T00:24:48.829Z,7.63
2022-08-27T00:25:13.503Z,7.90
2022-08-27T00:25:35.534Z,7.90
2022-08-27T00:25:58.035Z,7.63
2022-08-27T00:26:20.195Z,7.13
2022-08-27T00:26:43.415Z,7.30
2022-08-27T00:27:05.675Z,7.43
2022-08-27T00:27:28.850Z,7.75
2022-08-27T00:27:51.187Z,8.00
2022-08-27T00:28:13.301Z,7.70
2022-08-27T00:28:35.385Z,7.93
2022-08-27T00:28:59.565Z,8.02
2022-08-27T00:29:21.603Z,7.97
2022-08-27T00:29:43.455Z,7.43
2022-08-27T00:30:08.474Z,7.50
2022-08-27T00:30:30.473Z,7.20
2022-08-27T00:30:52.971Z,7.35
2022-08-27T00:31:14.999Z,7.60
2022-08-27T00:31:37.664Z,7.90
2022-08-27T00:32:00.097Z,7.90
2022-08-27T00:32:22.258Z,7.55
2022-08-27T00:32:44.533Z,7.53
2022-08-27T00:33:06.324Z,7.40
2022-08-27T00:33:28.508Z,7.75
2022-08-27T00:33:50.418Z,7.70
2022-08-27T00:34:13.030Z,7.40
2022-08-27T00:34:35.803Z,7.68
2022-08-27T00:34:57.782Z,6.93
2022-08-27T00:35:20.511Z,7.47
2022-08-27T00:35:42.599Z,7.47
2022-08-27T00:36:06.025Z,7.68
2022-08-27T00:36:28.039Z,7.75
2022-08-27T00:36:50.625Z,7.72
2022-08-27T00:37:13.005Z,7.70
2022-08-27T00:37:35.548Z,7.32
2022-08-27T00:37:57.570Z,7.32
2022-08-27T00:38:21.797Z,7.65
2022-08-27T00:38:43.811Z,7.32
2022-08-27T00:39:05.637Z,6.93
2022-08-27T00:39:27.639Z,7.15
2022-08-27T00:39:49.511Z,7.70
2022-08-27T00:40:16.839Z,7.70
2022-08-27T00:40:38.768Z,7.57
2022-08-27T00:41:01.283Z,7.23
2022-08-27T00:41:23.821Z,7.78
2022-08-27T00:41:45.677Z,7.70
2022-08-27T00:42:08.345Z,7.35
2022-08-27T00:42:31.072Z,7.38
2022-08-27T00:42:54.626Z,7.65
2022-08-27T00:43:45.290Z,7.28
2022-08-27T00:44:07.841Z,7.72
2022-08-27T00:44:32.006Z,7.57
2022-08-27T00:44:54.403Z,7.53
2022-08-27T00:45:20.134Z,7.70
2022-08-27T00:45:45.245Z,7.28
2022-08-27T00:46:14.842Z,7.13
2022-08-27T00:46:39.618Z,7.60
2022-08-27T00:47:05.202Z,7.57
2022-08-27T00:47:30.113Z,7.78
2022-08-27T00:47:56.664Z,7.55
2022-08-27T00:48:21.842Z,7.90
2022-08-27T00:48:43.669Z,7.13
2022-08-27T00:49:16.330Z,7.20
2022-08-27T00:49:52.477Z,7.43
2022-08-27T00:50:19.685Z,7.75
2022-08-27T00:50:47.792Z,7.68
2022-08-27T00:51:09.709Z,7.70
2022-08-27T00:51:31.629Z,7.68
2022-08-27T00:51:58.206Z,7.78
2022-08-27T00:52:34.312Z,7.38
2022-08-27T00:52:59.843Z,7.13
2022-08-27T00:53:30.240Z,7.75
2022-08-27T00:53:53.836Z,7.43
2022-08-27T00:54:16.080Z,7.90
2022-08-27T00:54:41.996Z,7.78
2022-08-27T00:55:18.107Z,7.88
2022-08-27T00:55:45.721Z,7.30
2022-08-27T00:56:13.257Z,7.68
2022-08-27T00:56:48.675Z,7.55
2022-08-27T00:57:16.634Z,7.20
2022-08-27T00:57:41.012Z,7.82
2022-08-27T00:58:07.710Z,7.53
2022-08-27T00:58:38.283Z,7.05
2022-08-27T00:59:02.416Z,7.37
2022-08-27T00:59:29.278Z,7.47
2022-08-27T00:59:51.257Z,7.82
2022-08-27T01:00:17.234Z,7.68
2022-08-27T01:00:39.254Z,7.80
2022-08-27T01:01:02.482Z,7.10
2022-08-27T01:01:29.517Z,7.90
2022-08-27T01:02:10.461Z,7.40
2022-08-27T01:02:32.626Z,7.03
2022-08-27T01:02:55.456Z,7.10
2022-08-27T01:03:17.463Z,7.32
2022-08-27T01:03:41.557Z,7.63
2022-08-27T01:04:06.037Z,7.20
2022-08-27T01:04:29.521Z,7.47
2022-08-27T01:04:59.194Z,7.35
2022-08-27T01:05:25.614Z,7.47
2022-08-27T01:05:50.116Z,7.20
2022-08-27T01:06:16.177Z,7.68
2022-08-27T01:06:38.270Z,6.95
2022-08-27T01:07:02.126Z,7.18
2022-08-27T01:07:28.641Z,8.02
2022-08-27T01:07:53.956Z,7.37
2022-08-27T01:08:20.559Z,7.55
2022-08-27T01:09:04.803Z,7.30
2022-08-27T01:09:27.274Z,7.40
2022-08-27T01:09:50.042Z,7.60
2022-08-27T01:10:16.689Z,7.55
2022-08-27T01:10:39.711Z,7.85
2022-08-27T01:11:02.473Z,7.63
2022-08-27T01:11:25.811Z,7.45
2022-08-27T01:11:48.565Z,7.43
2022-08-27T01:12:11.368Z,7.90
2022-08-27T01:12:35.833Z,8.02
2022-08-27T01:13:00.053Z,8.00
2022-08-27T01:13:44.205Z,8.13
2022-08-27T01:14:07.323Z,8.00
2022-08-27T01:14:29.405Z,7.47
2022-08-27T01:14:51.666Z,8.00
2022-08-27T01:15:20.080Z,8.25
2022-08-27T01:15:43.086Z,7.72
2022-08-27T01:16:07.740Z,7.82
2022-08-27T01:16:37.626Z,7.35
2022-08-27T01:17:01.913Z,7.40
2022-08-27T01:17:25.101Z,6.95
2022-08-27T01:17:48.803Z,7.68
2022-08-27T01:18:13.498Z,7.68
2022-08-27T01:18:37.889Z,7.57
2022-08-27T01:19:01.167Z,7.60
2022-08-27T01:19:32.243Z,8.07
2022-08-27T01:20:01.463Z,7.50
2022-08-27T01:20:29.356Z,7.57
2022-08-27T01:21:09.604Z,7.88
2022-08-27T01:21:38.526Z,7.50
2022-08-27T01:22:09.204Z,7.85
2022-08-27T01:23:08.371Z,7.57
2022-08-27T01:23:50.804Z,7.80
2022-08-27T01:24:34.382Z,7.38
2022-08-27T01:25:01.171Z,7.70
2022-08-27T01:25:25.087Z,8.02
2022-08-27T01:25:47.993Z,7.63
2022-08-27T01:26:13.134Z,7.82
2022-08-27T01:26:35.624Z,7.55
2022-08-27T01:26:59.531Z,7.45
2022-08-27T01:27:25.127Z,8.02
2022-08-27T01:27:48.012Z,8.07
2022-08-27T01:28:11.284Z,8.05
2022-08-27T01:28:37.436Z,7.78
2022-08-27T01:28:59.858Z,7.35
2022-08-27T01:29:21.756Z,7.75
2022-08-27T01:29:45.006Z,7.95
2022-08-27T01:30:10.183Z,7.30
2022-08-27T01:30:32.426Z,7.80
2022-08-27T01:30:54.361Z,7.47
2022-08-27T01:31:16.487Z,7.65
2022-08-27T01:31:39.014Z,7.65
2022-08-27T01:32:10.945Z,7.85
2022-08-27T01:32:34.389Z,8.05
2022-08-27T01:32:56.731Z,8.18
2022-08-27T01:33:21.152Z,7.45
2022-08-27T01:34:00.120Z,7.82
2022-08-27T01:34:21.976Z,8.82
2022-08-27T01:34:44.655Z,7.60
2022-08-27T01:35:10.258Z,7.55
2022-08-27T01:35:33.141Z,7.72
2022-08-27T01:36:00.821Z,7.85
2022-08-27T01:36:22.757Z,8.10
2022-08-27T01:36:44.793Z,7.65
2022-08-27T01:37:06.963Z,7.50
2022-08-27T01:37:31.003Z,7.95
2022-08-27T01:37:57.197Z,7.60
2022-08-27T01:38:30.837Z,7.80
2022-08-27T01:38:53.371Z,8.45
2022-08-27T01:39:15.393Z,8.57
2022-08-27T01:39:42.112Z,7.88
2022-08-27T01:40:05.968Z,7.80
2022-08-27T01:40:27.979Z,8.30
2022-08-27T01:40:49.932Z,8.45
2022-08-27T01:41:12.211Z,7.97
2022-08-27T01:41:34.356Z,8.18
2022-08-27T01:42:04.856Z,8.30
2022-08-27T01:42:31.732Z,7.87
2022-08-27T01:42:56.701Z,7.80
2022-08-27T01:43:19.401Z,7.72
2022-08-27T01:43:42.077Z,8.15
2022-08-27T01:44:04.568Z,8.25
2022-08-27T01:44:26.937Z,8.07
2022-08-27T01:44:53.207Z,8.18
2022-08-27T01:45:27.515Z,8.02
2022-08-27T01:45:51.772Z,7.72
2022-08-27T01:46:14.064Z,7.68
2022-08-27T01:46:38.468Z,7.70
2022-08-27T01:47:00.331Z,7.68
2022-08-27T01:47:30.532Z,8.00
2022-08-27T01:47:54.036Z,7.50
2022-08-27T01:48:20.948Z,7.72
2022-08-27T01:48:42.847Z,7.97
2022-08-27T01:49:09.476Z,7.95
2022-08-27T01:49:31.278Z,8.32
2022-08-27T01:49:53.457Z,8.23
2022-08-27T01:50:23.589Z,7.80
2022-08-27T01:50:48.156Z,8.43
2022-08-27T01:51:10.100Z,7.93
2022-08-27T01:51:32.012Z,8.18
2022-08-27T01:51:53.861Z,8.32
2022-08-27T01:52:18.148Z,8.20
2022-08-27T01:52:40.548Z,8.32
2022-08-27T01:53:12.697Z,8.23
2022-08-27T01:53:34.621Z,8.13
2022-08-27T01:53:56.438Z,8.05
2022-08-27T01:54:18.646Z,8.40
2022-08-27T01:54:41.178Z,8.70
2022-08-27T01:55:04.094Z,8.60
2022-08-27T01:55:26.999Z,8.27
2022-08-27T01:55:50.651Z,7.82
2022-08-27T01:56:13.077Z,7.95
2022-08-27T01:56:35.028Z,8.45
2022-08-27T01:56:57.531Z,8.73
2022-08-27T01:57:25.858Z,8.18
2022-08-27T01:57:49.620Z,8.30
2022-08-27T01:58:14.104Z,8.85
2022-08-27T01:58:38.665Z,8.80
2022-08-27T01:59:00.636Z,8.57
2022-08-27T01:59:22.650Z,8.80
2022-08-27T01:59:44.931Z,8.45
2022-08-27T02:00:10.714Z,8.55
2022-08-27T02:00:39.646Z,8.35
2022-08-27T02:01:09.969Z,8.80
2022-08-27T02:01:32.304Z,8.10
2022-08-27T02:01:55.830Z,8.43
2022-08-27T02:02:18.553Z,8.65
2022-08-27T02:02:40.876Z,8.93
2022-08-27T02:03:03.740Z,8.65
2022-08-27T02:03:26.992Z,8.20
2022-08-27T02:03:49.039Z,8.07
2022-08-27T02:04:10.847Z,8.50
2022-08-27T02:04:33.674Z,8.95
2022-08-27T02:04:55.518Z,8.70
2022-08-27T02:05:18.239Z,8.90
2022-08-27T02:05:45.050Z,9.00
2022-08-27T02:06:09.362Z,8.47
2022-08-27T02:06:31.210Z,8.55
2022-08-27T02:06:53.017Z,8.73
2022-08-27T02:07:14.942Z,9.20
2022-08-27T02:07:38.429Z,8.75
2022-08-27T02:08:00.407Z,8.32
2022-08-27T02:08:23.068Z,8.30
2022-08-27T02:08:45.303Z,8.32
2022-08-27T02:09:07.155Z,8.50
2022-08-27T02:09:28.997Z,8.93
2022-08-27T02:09:51.845Z,8.85
2022-08-27T02:10:17.508Z,9.43
2022-08-27T02:10:40.698Z,8.90
2022-08-27T02:11:04.411Z,9.52
2022-08-27T02:11:26.432Z,9.38
2022-08-27T02:11:48.306Z,8.90
2022-08-27T02:12:11.710Z,8.95
2022-08-27T02:12:33.761Z,8.85
2022-08-27T02:12:55.871Z,8.88
2022-08-27T02:13:18.203Z,9.32
2022-08-27T02:13:40.178Z,9.00
2022-08-27T02:14:02.212Z,8.90
2022-08-27T02:14:32.020Z,8.90
2022-08-27T02:14:53.900Z,8.90
2022-08-27T02:15:16.254Z,8.80
2022-08-27T02:15:39.290Z,9.10
2022-08-27T02:16:02.625Z,8.90
2022-08-27T02:16:24.620Z,8.43
2022-08-27T02:16:52.705Z,8.77
2022-08-27T02:17:15.495Z,8.70
2022-08-27T02:17:38.642Z,9.10
2022-08-27T02:18:03.863Z,9.43
2022-08-27T02:18:26.175Z,9.13
2022-08-27T02:18:48.627Z,9.07
2022-08-27T02:19:10.545Z,8.95
2022-08-27T02:19:36.109Z,8.98
2022-08-27T02:19:58.899Z,8.95
2022-08-27T02:20:22.303Z,9.20
2022-08-27T02:20:46.455Z,9.77
2022-08-27T02:21:08.837Z,9.43
2022-08-27T02:21:30.820Z,8.90
2022-08-27T02:21:54.071Z,8.90
2022-08-27T02:22:17.883Z,8.90
2022-08-27T02:22:40.661Z,9.07
2022-08-27T02:23:04.508Z,8.50
2022-08-27T02:23:26.357Z,8.68
2022-08-27T02:23:48.143Z,8.90
2022-08-27T02:24:10.088Z,9.20
2022-08-27T02:24:31.875Z,9.15
2022-08-27T02:24:54.047Z,9.10
2022-08-27T02:25:17.092Z,9.20
2022-08-27T02:25:39.395Z,9.45
2022-08-27T02:26:01.474Z,8.95
2022-08-27T02:26:23.367Z,9.23
2022-08-27T02:26:45.244Z,9.30
2022-08-27T02:27:07.953Z,9.15
2022-08-27T02:27:29.844Z,8.98
2022-08-27T02:27:51.986Z,9.45
2022-08-27T02:28:14.583Z,9.43
2022-08-27T02:28:36.706Z,9.07
2022-08-27T02:28:58.548Z,9.43
2022-08-27T02:29:20.400Z,9.35
2022-08-27T02:29:42.389Z,9.30
2022-08-27T02:30:05.828Z,9.25
2022-08-27T02:30:29.779Z,8.93
2022-08-27T02:30:51.614Z,9.07
2022-08-27T02:31:14.505Z,8.73
2022-08-27T02:31:37.111Z,9.30
2022-08-27T02:31:59.159Z,9.00
2022-08-27T02:32:31.940Z,9.30
2022-08-27T02:32:54.435Z,8.63
2022-08-27T02:33:16.983Z,9.10
2022-08-27T02:33:38.788Z,8.98
2022-08-27T02:34:01.211Z,8.95
2022-08-27T02:34:23.390Z,9.57
2022-08-27T02:34:45.345Z,9.35
2022-08-27T02:35:09.172Z,8.98
2022-08-27T02:35:33.531Z,9.07
2022-08-27T02:35:55.783Z,9.30
2022-08-27T02:36:18.244Z,9.05
2022-08-27T02:36:40.324Z,9.07
2022-08-27T02:37:02.136Z,9.50
2022-08-27T02:37:24.178Z,9.52
2022-08-27T02:37:46.801Z,9.23
2022-08-27T02:38:12.864Z,9.60
2022-08-27T02:38:35.317Z,9.38
2022-08-27T02:38:57.146Z,9.05
2022-08-27T02:39:19.011Z,9.75
2022-08-27T02:39:44.300Z,9.40
2022-08-27T02:40:09.681Z,9.27
2022-08-27T02:40:31.668Z,10.02
2022-08-27T02:40:54.197Z,9.48
2022-08-27T02:41:16.826Z,9.27
2022-08-27T02:41:39.042Z,9.32
2022-08-27T02:42:00.955Z,9.45
2022-08-27T02:42:23.708Z,9.88
2022-08-27T02:42:45.816Z,9.77
2022-08-27T02:43:08.004Z,9.55
2022-08-27T02:43:30.269Z,9.63
2022-08-27T02:43:52.531Z,9.25
2022-08-27T02:44:15.800Z,9.52
2022-08-27T02:44:38.279Z,9.55
2022-08-27T02:45:00.129Z,9.90
2022-08-27T02:45:23.044Z,9.82
2022-08-27T02:45:45.245Z,9.63
2022-08-27T02:46:07.408Z,9.82
2022-08-27T02:46:30.684Z,10.20
2022-08-27T02:46:53.748Z,9.73
2022-08-27T02:47:16.811Z,9.32
2022-08-27T02:47:38.637Z,9.35
2022-08-27T02:48:01.211Z,9.75
2022-08-27T02:48:24.696Z,9.48
2022-08-27T02:48:46.704Z,10.60
2022-08-27T02:49:09.600Z,9.75
2022-08-27T02:49:31.486Z,10.00
2022-08-27T02:49:53.317Z,10.43
2022-08-27T02:50:15.800Z,10.10
2022-08-27T02:50:38.154Z,9.63
2022-08-27T02:50:59.984Z,9.75
2022-08-27T02:51:22.081Z,9.63
2022-08-27T02:51:44.171Z,9.63
2022-08-27T02:52:06.097Z,9.63
2022-08-27T02:52:29.957Z,9.40
2022-08-27T02:52:51.886Z,9.45
2022-08-27T02:53:14.151Z,9.95
2022-08-27T02:53:38.045Z,10.05
2022-08-27T02:54:02.403Z,8.98
2022-08-27T02:54:26.436Z,9.30
2022-08-27T02:54:49.309Z,10.05
2022-08-27T02:55:13.525Z,9.70
2022-08-27T02:55:37.805Z,10.40
2022-08-27T02:55:59.748Z,10.45
2022-08-27T02:56:21.622Z,9.75
2022-08-27T02:56:43.948Z,9.70
2022-08-27T02:57:05.987Z,9.35
2022-08-27T02:57:28.432Z,10.13
2022-08-27T02:57:50.402Z,10.20
2022-08-27T02:58:15.525Z,9.93
2022-08-27T02:58:38.100Z,9.45
2022-08-27T02:59:00.385Z,9.45
2022-08-27T02:59:22.720Z,9.90
2022-08-27T02:59:45.250Z,10.02
2022-08-27T03:00:10.567Z,9.18
2022-08-27T03:00:32.375Z,10.07
2022-08-27T03:00:54.881Z,10.07
2022-08-27T03:01:17.757Z,9.55
2022-08-27T03:01:39.760Z,9.32
2022-08-27T03:02:01.848Z,9.20
2022-08-27T03:02:23.814Z,10.13
2022-08-27T03:02:49.817Z,9.98
2022-08-27T03:03:11.684Z,9.48
2022-08-27T03:03:33.643Z,9.20
2022-08-27T03:03:56.891Z,9.60
2022-08-27T03:04:20.405Z,9.82
2022-08-27T03:04:42.524Z,10.27
2022-08-27T03:05:05.746Z,9.85
2022-08-27T03:05:28.237Z,9.15
2022-08-27T03:05:50.039Z,9.30
2022-08-27T03:06:12.603Z,8.88
2022-08-27T03:06:34.920Z,9.02
2022-08-27T03:06:56.868Z,9.50
2022-08-27T03:07:19.317Z,9.50
2022-08-27T03:07:42.397Z,9.60
2022-08-27T03:08:05.951Z,9.52
2022-08-27T03:08:28.662Z,9.18
2022-08-27T03:08:54.262Z,9.63
2022-08-27T03:09:16.070Z,8.73
2022-08-27T03:09:38.260Z,9.65
2022-08-27T03:10:00.106Z,9.80
2022-08-27T03:10:22.558Z,9.60
2022-08-27T03:10:44.454Z,9.75
2022-08-27T03:11:08.391Z,9.77
2022-08-27T03:11:32.257Z,8.82
2022-08-27T03:11:54.150Z,9.05
2022-08-27T03:12:16.876Z,9.82
2022-08-27T03:12:40.439Z,9.18
2022-08-27T03:13:02.626Z,9.40
2022-08-27T03:13:26.132Z,9.48
2022-08-27T03:13:48.296Z,9.40
2022-08-27T03:14:10.308Z,10.07
2022-08-27T03:14:32.778Z,10.07
2022-08-27T03:14:54.642Z,10.25
2022-08-27T03:15:18.697Z,10.00
2022-08-27T03:15:40.576Z,9.93
2022-08-27T03:16:02.718Z,9.75
2022-08-27T03:16:25.735Z,9.68
2022-08-27T03:16:47.625Z,9.43
2022-08-27T03:17:27.839Z,10.05
2022-08-27T03:18:08.465Z,10.07
2022-08-27T03:18:32.551Z,9.43
2022-08-27T03:18:54.373Z,9.82
2022-08-27T03:19:19.914Z,10.10
2022-08-27T03:19:45.964Z,9.88
2022-08-27T03:20:12.161Z,9.82
2022-08-27T03:20:34.257Z,9.23
2022-08-27T03:20:57.204Z,8.90
2022-08-27T03:21:25.214Z,9.45
2022-08-27T03:21:54.899Z,9.57
2022-08-27T03:22:17.189Z,9.50
2022-08-27T03:22:40.228Z,9.37
2022-08-27T03:23:02.072Z,9.02
2022-08-27T03:23:28.058Z,9.38
2022-08-27T03:23:51.237Z,9.48
2022-08-27T03:24:14.912Z,10.10
2022-08-27T03:24:36.762Z,9.40
2022-08-27T03:24:58.551Z,9.45
2022-08-27T03:25:21.158Z,9.10
2022-08-27T03:25:45.849Z,9.18
2022-08-27T03:26:11.573Z,9.48
2022-08-27T03:26:34.398Z,9.63
2022-08-27T03:26:56.246Z,9.50
2022-08-27T03:27:18.259Z,9.50
2022-08-27T03:27:40.554Z,9.48
2022-08-27T03:28:02.777Z,9.85
2022-08-27T03:28:28.594Z,10.00
2022-08-27T03:28:50.446Z,9.70
2022-08-27T03:29:12.267Z,10.70
2022-08-27T03:29:35.445Z,10.15
2022-08-27T03:30:00.746Z,9.50
2022-08-27T03:30:25.590Z,9.50
2022-08-27T03:30:53.609Z,10.07
2022-08-27T03:31:22.628Z,10.38
2022-08-27T03:32:07.771Z,9.90
2022-08-27T03:32:29.733Z,9.93
2022-08-27T03:32:51.910Z,9.88
2022-08-27T03:33:13.872Z,9.93
2022-08-27T03:33:38.622Z,9.80
2022-08-27T03:34:03.921Z,9.93
2022-08-27T03:34:25.701Z,10.15
2022-08-27T03:34:47.688Z,9.60
2022-08-27T03:35:09.931Z,9.77
2022-08-27T03:35:31.816Z,9.65
2022-08-27T03:35:56.638Z,10.18
2022-08-27T03:36:18.420Z,10.38
2022-08-27T03:36:40.244Z,9.98
2022-08-27T03:37:02.469Z,10.32
2022-08-27T03:37:24.976Z,10.07
2022-08-27T03:37:47.355Z,10.27
2022-08-27T03:38:09.415Z,10.52
2022-08-27T03:38:31.357Z,9.68
2022-08-27T03:38:53.924Z,10.20
2022-08-27T03:39:16.014Z,10.25
2022-08-27T03:39:37.902Z,10.52
2022-08-27T03:39:59.847Z,10.05
2022-08-27T03:40:21.771Z,9.90
2022-08-27T03:40:44.718Z,9.63
2022-08-27T03:41:06.911Z,9.88
2022-08-27T03:41:54.246Z,10.32
2022-08-27T03:42:10.601Z,9.23
2022-08-27T03:42:32.650Z,9.40
2022-08-27T03:42:54.578Z,9.65
2022-08-27T03:43:20.335Z,9.88
2022-08-27T03:43:42.702Z,9.55
2022-08-27T03:44:04.605Z,9.88
2022-08-27T03:44:26.446Z,10.27
2022-08-27T03:44:49.010Z,10.13
2022-08-27T03:45:11.579Z,10.05
2022-08-27T03:46:00.299Z,10.18
2022-08-27T03:46:15.292Z,10.43
2022-08-27T03:46:37.156Z,10.73
2022-08-27T03:47:00.139Z,10.93
2022-08-27T03:47:23.808Z,10.75
2022-08-27T03:47:45.677Z,10.93
2022-08-27T03:48:07.622Z,10.73
2022-08-27T03:48:32.068Z,10.43
2022-08-27T03:48:54.043Z,10.23
2022-08-27T03:49:21.525Z,10.52
2022-08-27T03:49:43.961Z,10.48
2022-08-27T03:50:07.393Z,10.50
2022-08-27T03:50:29.234Z,11.18
2022-08-27T03:50:51.513Z,10.98
2022-08-27T03:51:15.263Z,10.90
2022-08-27T03:51:37.439Z,10.80
2022-08-27T03:51:59.580Z,10.77
2022-08-27T03:52:21.459Z,10.68
2022-08-27T03:52:43.325Z,11.45
2022-08-27T03:53:05.190Z,10.98
2022-08-27T03:53:28.315Z,11.25
2022-08-27T03:53:50.632Z,11.32
2022-08-27T03:54:12.484Z,11.27
2022-08-27T03:54:36.114Z,10.95
2022-08-27T03:54:59.153Z,10.77
2022-08-27T03:55:21.063Z,11.20
2022-08-27T03:55:43.120Z,10.60
2022-08-27T03:56:06.739Z,10.90
2022-08-27T03:56:28.552Z,11.15
2022-08-27T03:56:50.845Z,11.20
2022-08-27T03:57:13.393Z,10.85
2022-08-27T03:57:35.258Z,11.05
2022-08-27T03:57:57.059Z,10.98
2022-08-27T03:58:19.124Z,11.05
2022-08-27T03:58:41.662Z,10.90
2022-08-27T03:59:03.535Z,11.13
2022-08-27T03:59:25.409Z,11.27
2022-08-27T03:59:47.226Z,11.23
2022-08-27T04:00:12.388Z,11.30
2022-08-27T04:00:34.192Z,10.60
2022-08-27T04:00:57.557Z,11.07
2022-08-27T04:01:19.771Z,11.27
2022-08-27T04:01:42.327Z,10.67
2022-08-27T04:02:05.219Z,9.93
2022-08-27T04:02:27.852Z,10.32
2022-08-27T04:02:49.795Z,11.55
2022-08-27T04:03:13.989Z,11.05
2022-08-27T04:03:36.168Z,10.73
2022-08-27T04:03:59.507Z,10.85
2022-08-27T04:04:21.540Z,10.20
2022-08-27T04:04:43.305Z,10.93
2022-08-27T04:05:06.140Z,10.65
2022-08-27T04:05:28.127Z,11.00
2022-08-27T04:05:54.566Z,10.90
2022-08-27T04:06:16.354Z,11.02
2022-08-27T04:06:38.192Z,11.05
2022-08-27T04:07:00.105Z,10.75
2022-08-27T04:07:21.887Z,10.80
2022-08-27T04:07:44.010Z,10.32
2022-08-27T04:08:06.797Z,10.38
2022-08-27T04:08:29.198Z,10.27
2022-08-27T04:08:51.059Z,10.25
2022-08-27T04:09:12.868Z,9.50
2022-08-27T04:09:34.662Z,10.07
2022-08-27T04:09:56.614Z,10.60
2022-08-27T04:10:19.120Z,11.10
2022-08-27T04:10:41.661Z,10.38
2022-08-27T04:11:07.176Z,9.80
2022-08-27T04:11:30.207Z,10.32
2022-08-27T04:11:52.295Z,10.38
2022-08-27T04:12:14.242Z,10.32
2022-08-27T04:12:37.545Z,9.73
2022-08-27T04:12:59.365Z,9.95
2022-08-27T04:13:23.415Z,9.80
2022-08-27T04:13:45.476Z,9.85
2022-08-27T04:14:20.838Z,9.95
2022-08-27T04:14:48.529Z,10.65
2022-08-27T04:15:12.347Z,10.90
2022-08-27T04:15:34.220Z,10.73
2022-08-27T04:15:58.088Z,10.60
2022-08-27T04:16:20.396Z,10.30
2022-08-27T04:16:43.575Z,10.00
2022-08-27T04:17:05.411Z,10.32
2022-08-27T04:17:27.348Z,10.30
2022-08-27T04:17:49.179Z,10.00
2022-08-27T04:18:12.608Z,9.88
2022-08-27T04:18:34.536Z,9.73
2022-08-27T04:18:56.376Z,9.32
2022-08-27T04:19:18.406Z,9.68
2022-08-27T04:19:40.701Z,10.60
2022-08-27T04:20:24.964Z,10.85
2022-08-27T04:20:46.379Z,9.70
2022-08-27T04:21:11.211Z,9.10
2022-08-27T04:21:34.053Z,10.15
2022-08-27T04:22:00.886Z,10.18
2022-08-27T04:22:23.781Z,10.10
2022-08-27T04:22:45.672Z,10.02
2022-08-27T04:23:07.517Z,9.73
2022-08-27T04:23:29.331Z,10.60
2022-08-27T04:23:51.177Z,9.50
2022-08-27T04:24:16.129Z,9.43
2022-08-27T04:24:38.718Z,10.05
2022-08-27T04:25:00.926Z,10.10
2022-08-27T04:25:24.246Z,9.88
2022-08-27T04:25:46.390Z,9.77
2022-08-27T04:26:10.101Z,9.60
2022-08-27T04:26:33.433Z,9.60
2022-08-27T04:26:55.323Z,9.35
2022-08-27T04:27:17.450Z,9.88
2022-08-27T04:27:39.317Z,10.07
2022-08-27T04:28:01.223Z,9.55
2022-08-27T04:28:23.022Z,10.50
2022-08-27T04:28:48.579Z,10.10
2022-08-27T04:29:10.727Z,9.65
2022-08-27T04:29:33.006Z,9.82
2022-08-27T04:29:58.366Z,9.95
2022-08-27T04:30:20.469Z,10.00
2022-08-27T04:30:45.111Z,10.45
2022-08-27T04:31:12.965Z,9.73
2022-08-27T04:31:38.808Z,9.20
2022-08-27T04:32:01.163Z,9.70
2022-08-27T04:32:23.396Z,10.13
2022-08-27T04:32:49.396Z,9.68
2022-08-27T04:33:15.024Z,9.75
2022-08-27T04:33:37.156Z,9.85
2022-08-27T04:33:58.950Z,10.30
2022-08-27T04:34:20.929Z,9.55
2022-08-27T04:34:42.934Z,10.05
2022-08-27T04:35:05.691Z,9.52
2022-08-27T04:35:27.753Z,9.48
2022-08-27T04:35:58.915Z,9.40
2022-08-27T04:36:21.372Z,9.90
2022-08-27T04:36:43.241Z,9.80
2022-08-27T04:37:05.807Z,9.63
2022-08-27T04:37:32.286Z,9.52
2022-08-27T04:37:54.370Z,9.40
2022-08-27T04:38:16.196Z,9.38
2022-08-27T04:38:38.738Z,9.50
2022-08-27T04:39:01.090Z,9.38
2022-08-27T04:39:23.507Z,9.38
2022-08-27T04:39:49.769Z,9.50
2022-08-27T04:40:12.587Z,9.63
2022-08-27T04:40:54.652Z,10.00
2022-08-27T04:41:19.937Z,9.30
2022-08-27T04:41:41.831Z,10.35
2022-08-27T04:42:03.834Z,9.65
2022-08-27T04:42:25.721Z,9.52
2022-08-27T04:42:47.676Z,9.57
2022-08-27T04:43:09.718Z,9.63
2022-08-27T04:43:31.529Z,9.75
2022-08-27T04:43:57.062Z,10.35
2022-08-27T04:44:19.690Z,10.10
2022-08-27T04:44:41.595Z,9.77
2022-08-27T04:45:04.487Z,9.43
2022-08-27T04:45:26.268Z,9.73
2022-08-27T04:45:51.496Z,9.30
2022-08-27T04:46:13.539Z,9.95
2022-08-27T04:46:38.127Z,9.85
2022-08-27T04:47:02.225Z,9.75
2022-08-27T04:47:24.027Z,9.35
2022-08-27T04:47:45.884Z,9.50
2022-08-27T04:48:07.698Z,9.90
2022-08-27T04:48:29.509Z,9.57
2022-08-27T04:48:52.377Z,9.63
2022-08-27T04:49:17.357Z,9.77
2022-08-27T04:49:39.255Z,9.35
2022-08-27T04:50:05.682Z,10.00
2022-08-27T04:50:27.750Z,9.93
2022-08-27T04:50:50.404Z,10.02
2022-08-27T04:51:12.213Z,9.38
2022-08-27T04:51:36.622Z,9.20
2022-08-27T04:52:00.200Z,9.55
2022-08-27T04:52:22.066Z,9.68
2022-08-27T04:52:43.861Z,9.13
2022-08-27T04:53:05.861Z,8.73
2022-08-27T04:53:27.820Z,9.05
2022-08-27T04:53:50.004Z,9.60
2022-08-27T04:54:11.877Z,9.57
2022-08-27T04:54:34.393Z,8.98
2022-08-27T04:54:56.302Z,9.32
2022-08-27T04:55:19.557Z,10.02
2022-08-27T04:56:01.660Z,9.87
2022-08-27T04:56:24.545Z,9.90
2022-08-27T04:56:46.429Z,9.88
2022-08-27T04:57:08.343Z,10.02
2022-08-27T04:57:30.385Z,10.65
2022-08-27T04:57:52.231Z,10.02
2022-08-27T04:58:15.719Z,9.35
2022-08-27T04:58:37.575Z,9.27
2022-08-27T04:59:01.070Z,9.55
2022-08-27T04:59:23.113Z,9.50
2022-08-27T04:59:45.196Z,10.13
2022-08-27T05:00:09.383Z,10.48
2022-08-27T05:00:31.155Z,10.15
2022-08-27T05:01:00.055Z,10.32
2022-08-27T05:01:29.058Z,10.43
2022-08-27T05:01:51.442Z,10.23
2022-08-27T05:02:13.891Z,10.60
2022-08-27T05:02:35.725Z,10.88
2022-08-27T05:02:57.929Z,10.40
2022-08-27T05:03:23.732Z,10.65
2022-08-27T05:03:45.921Z,10.88
2022-08-27T05:04:08.635Z,10.77
2022-08-27T05:04:30.646Z,11.13
2022-08-27T05:04:52.759Z,10.55
2022-08-27T05:05:16.168Z,11.18
2022-08-27T05:05:38.714Z,10.70
2022-08-27T05:06:06.058Z,10.20
2022-08-27T05:06:28.246Z,10.35
2022-08-27T05:06:50.766Z,11.00
2022-08-27T05:07:16.695Z,10.75
2022-08-27T05:07:39.266Z,11.32
2022-08-27T05:08:01.834Z,11.10
2022-08-27T05:08:23.824Z,10.48
2022-08-27T05:08:45.920Z,10.25
2022-08-27T05:09:07.723Z,9.98
2022-08-27T05:09:29.849Z,9.95
2022-08-27T05:09:52.288Z,10.43
2022-08-27T05:10:14.048Z,10.88
2022-08-27T05:10:49.943Z,10.48
2022-08-27T05:11:15.033Z,10.50
2022-08-27T05:11:37.583Z,10.25
2022-08-27T05:11:59.532Z,10.93
2022-08-27T05:12:22.417Z,10.52
2022-08-27T05:12:44.473Z,10.18
2022-08-27T05:13:06.534Z,9.95
2022-08-27T05:13:29.285Z,9.63
2022-08-27T05:13:51.529Z,9.95
2022-08-27T05:14:16.267Z,10.02
2022-08-27T05:14:38.437Z,9.27